Document
Identifier
ClassDocument
Number
Document NameDateFile Size (KB)Download
10706240 Wells 1634100 DIRECTIONAL SURVEY 04/06/2011 78331 Download
10706240 Wells 1634101 CEMENT JOB SUMMARY 04/06/2011 436520 Download
12331704 Wells 1634105 WELLBORE DIAGRAM 04/06/2011 21745 Download
12331527 Wells 400177119 FORM 5 SUBMITTED 04/06/2011 57662 Download
12331527 Wells 1634107 CEMENT JOB SUMMARY 04/06/2011 155551 Download
12331599 Well Logs 1291221 CEMENT VOLUME 04/06/2011 1749272 Download
10311633 Well Logs 1291303 PERFORM-DRILLING MECHANICS 2 IN/HR TIME BASED REAL TIME LOG 04/06/2011 13104810 Download
10311633 Well Logs 1291304 POWERPULES GAMMA RAY 1 IN/100 GT AND 5 IN/100 FT TRUE VERTICAL RE 04/06/2011 8011608 Download
01707691 Well Logs 2548612 DUAL SPACED CEMENT BOND LOG 04/06/2011 6651432 Download
12331728 Wells 400177076 FORM 5 SUBMITTED 04/06/2011 32319 Download
12331728 Wells 400150504 DIRECTIONAL SURVEY 04/06/2011 173034 Download
12331728 Wells 400150505 CEMENT JOB SUMMARY 04/06/2011 127662 Download
12331728 Wells 400150506 XML FILE 04/06/2011 28895 Download
12331728 Wells 400172687 FORM 5A SUBMITTED 04/06/2011 26000 Download
12331728 Wells 400150508 XML FILE 04/06/2011 21416 Download
12331731 Wells 400177077 FORM 5 SUBMITTED 04/06/2011 32056 Download
12331731 Wells 400150510 DIRECTIONAL SURVEY 04/06/2011 105562 Download
12331731 Wells 400150511 CEMENT JOB SUMMARY 04/06/2011 122233 Download
12331731 Wells 400150512 XML FILE 04/06/2011 28904 Download
12331731 Wells 400172688 FORM 5A SUBMITTED 04/06/2011 25998 Download
12331731 Wells 400150514 XML FILE 04/06/2011 21417 Download
12331726 Wells 400177078 FORM 5 SUBMITTED 04/06/2011 32062 Download
12331726 Wells 400150516 CEMENT JOB SUMMARY 04/06/2011 122711 Download
12331726 Wells 400150517 DIRECTIONAL SURVEY 04/06/2011 104561 Download
12331726 Wells 400150518 XML FILE 04/06/2011 28904 Download
12345678910...